createdAt,value
2018-07-31T00:00:26.131Z,10.13
2018-07-31T00:02:54.447Z,9.90
2018-07-31T00:05:22.820Z,8.00
2018-07-31T00:07:51.213Z,12.53
2018-07-31T00:10:19.545Z,12.83
2018-07-31T00:12:47.931Z,9.73
2018-07-31T00:15:16.343Z,10.73
2018-07-31T00:17:44.733Z,8.57
2018-07-31T00:20:13.036Z,9.23
2018-07-31T00:22:41.487Z,8.73
2018-07-31T00:25:09.805Z,11.53
2018-07-31T00:27:38.137Z,9.10
2018-07-31T00:30:07.796Z,10.13
2018-07-31T00:32:36.160Z,8.50
2018-07-31T00:35:04.547Z,11.73
2018-07-31T00:37:32.872Z,8.30
2018-07-31T00:40:01.260Z,8.40
2018-07-31T00:42:29.581Z,8.40
2018-07-31T00:44:57.913Z,7.93
2018-07-31T00:47:26.225Z,8.03
2018-07-31T00:49:54.614Z,12.33
2018-07-31T00:52:22.946Z,7.83
2018-07-31T00:54:51.569Z,8.07
2018-07-31T00:57:19.901Z,9.47
2018-07-31T00:59:48.189Z,8.70
2018-07-31T01:02:16.799Z,8.93
2018-07-31T01:04:45.137Z,13.50
2018-07-31T01:07:13.466Z,8.80
2018-07-31T01:09:41.778Z,10.57
2018-07-31T01:12:10.069Z,10.73
2018-07-31T01:14:38.422Z,10.43
2018-07-31T01:17:06.703Z,9.93
2018-07-31T01:19:35.026Z,10.97
2018-07-31T01:22:03.351Z,11.57
2018-07-31T01:24:31.765Z,15.63
2018-07-31T01:27:00.114Z,8.70
2018-07-31T01:29:28.157Z,8.90
2018-07-31T01:31:56.496Z,8.37
2018-07-31T01:34:24.787Z,8.73
2018-07-31T01:36:53.118Z,7.47
2018-07-31T01:39:21.459Z,12.40
2018-07-31T01:41:49.832Z,10.40
2018-07-31T01:44:18.193Z,9.57
2018-07-31T01:46:46.489Z,7.60
2018-07-31T01:49:14.812Z,8.70
2018-07-31T01:51:43.169Z,8.90
2018-07-31T01:54:11.524Z,10.33
2018-07-31T01:56:39.856Z,9.27
2018-07-31T01:59:08.152Z,9.90
2018-07-31T02:01:36.465Z,11.50
2018-07-31T02:04:04.813Z,8.80
2018-07-31T02:06:33.090Z,8.10
2018-07-31T02:09:01.406Z,8.30
2018-07-31T02:11:29.737Z,8.33
2018-07-31T02:13:58.101Z,9.70
2018-07-31T02:16:26.417Z,12.70
2018-07-31T02:18:54.730Z,10.30
2018-07-31T02:21:23.052Z,9.43
2018-07-31T02:23:51.361Z,8.90
2018-07-31T02:26:19.695Z,8.87
2018-07-31T02:28:48.051Z,8.93
2018-07-31T02:31:16.095Z,9.47
2018-07-31T02:33:44.462Z,9.00
2018-07-31T02:36:12.784Z,8.27
2018-07-31T02:38:41.068Z,7.87
2018-07-31T02:41:09.390Z,13.03
2018-07-31T02:43:37.677Z,10.10
2018-07-31T02:46:05.966Z,9.20
2018-07-31T02:48:34.283Z,10.10
2018-07-31T02:51:02.621Z,10.53
2018-07-31T02:53:30.953Z,11.23
2018-07-31T02:56:00.133Z,11.70
2018-07-31T02:58:28.508Z,9.50
2018-07-31T03:00:56.848Z,9.30
2018-07-31T03:03:25.153Z,10.63
2018-07-31T03:05:53.512Z,9.90
2018-07-31T03:08:21.827Z,11.80
2018-07-31T03:10:50.168Z,14.73
2018-07-31T03:13:18.473Z,9.80
2018-07-31T03:15:46.848Z,10.93
2018-07-31T03:18:15.270Z,10.37
2018-07-31T03:20:43.602Z,9.90
2018-07-31T03:23:11.981Z,9.03
2018-07-31T03:25:40.262Z,10.20
2018-07-31T03:28:08.653Z,9.50
2018-07-31T03:30:36.993Z,9.70
2018-07-31T03:33:05.385Z,12.83
2018-07-31T03:35:33.749Z,10.93
2018-07-31T03:38:02.093Z,9.80
2018-07-31T03:40:30.413Z,9.30
2018-07-31T03:42:58.738Z,13.03
2018-07-31T03:45:27.054Z,13.20
2018-07-31T03:47:55.376Z,10.87
2018-07-31T03:50:23.743Z,12.83
2018-07-31T03:52:52.286Z,8.73
2018-07-31T03:55:20.697Z,8.60
2018-07-31T03:57:48.994Z,9.13
2018-07-31T04:00:17.436Z,23.73
2018-07-31T04:02:45.792Z,8.30
2018-07-31T04:05:14.105Z,9.20
2018-07-31T04:07:42.165Z,10.17
2018-07-31T04:10:10.461Z,12.70
2018-07-31T04:12:38.796Z,9.00
2018-07-31T04:15:07.128Z,8.33
2018-07-31T04:17:35.458Z,13.77
2018-07-31T04:20:03.785Z,9.13
2018-07-31T04:22:32.090Z,12.07
2018-07-31T04:25:00.417Z,7.93
2018-07-31T04:27:28.775Z,9.40
2018-07-31T04:29:57.106Z,11.07
2018-07-31T04:32:25.458Z,16.83
2018-07-31T04:34:53.793Z,9.63
2018-07-31T04:37:22.134Z,10.03
2018-07-31T04:39:50.524Z,11.87
2018-07-31T04:42:18.927Z,9.60
2018-07-31T04:44:47.166Z,8.53
2018-07-31T04:47:15.560Z,9.63
2018-07-31T04:49:43.896Z,10.17
2018-07-31T04:52:12.253Z,9.40
2018-07-31T04:54:40.572Z,9.83
2018-07-31T04:57:09.086Z,10.23
2018-07-31T04:59:39.452Z,9.07
2018-07-31T05:02:07.840Z,8.00
2018-07-31T05:04:36.524Z,10.40
2018-07-31T05:07:04.983Z,7.87
2018-07-31T05:09:33.308Z,8.90
2018-07-31T05:12:01.698Z,7.50
2018-07-31T05:14:30.097Z,12.07
2018-07-31T05:16:58.432Z,7.63
2018-07-31T05:19:26.764Z,7.67
2018-07-31T05:21:55.070Z,8.40
2018-07-31T05:24:23.405Z,10.50
2018-07-31T05:26:51.731Z,9.53
2018-07-31T05:29:20.054Z,8.80
2018-07-31T05:31:48.423Z,9.00
2018-07-31T05:34:16.765Z,7.80
2018-07-31T05:36:45.103Z,7.47
2018-07-31T05:39:13.543Z,6.80
2018-07-31T05:41:41.872Z,7.57
2018-07-31T05:44:10.219Z,7.70
2018-07-31T05:46:38.552Z,7.67
2018-07-31T05:49:06.940Z,7.07
2018-07-31T05:51:35.277Z,9.20
2018-07-31T05:54:03.685Z,7.53
2018-07-31T05:56:32.072Z,7.10
2018-07-31T05:59:00.387Z,9.20
2018-07-31T06:01:28.736Z,8.63
2018-07-31T06:03:57.057Z,7.83
2018-07-31T06:06:25.411Z,8.03
2018-07-31T06:08:53.727Z,7.90
2018-07-31T06:11:22.065Z,9.67
2018-07-31T06:13:50.416Z,8.93
2018-07-31T06:16:18.809Z,6.93
2018-07-31T06:18:47.125Z,7.70
2018-07-31T06:21:15.444Z,11.80
2018-07-31T06:23:43.740Z,12.10
2018-07-31T06:26:12.094Z,6.50
2018-07-31T06:28:40.456Z,6.37
2018-07-31T06:31:08.809Z,6.80
2018-07-31T06:33:37.188Z,9.70
2018-07-31T06:36:05.499Z,6.57
2018-07-31T06:38:33.811Z,7.23
2018-07-31T06:41:02.181Z,7.43
2018-07-31T06:43:30.522Z,7.40
2018-07-31T06:45:58.839Z,9.77
2018-07-31T06:48:27.420Z,6.57
2018-07-31T06:50:55.720Z,7.20
2018-07-31T06:53:24.066Z,6.30
2018-07-31T06:55:52.395Z,6.23
2018-07-31T06:58:20.751Z,7.43
2018-07-31T07:00:49.090Z,8.10
2018-07-31T07:03:17.427Z,6.67
2018-07-31T07:05:45.796Z,8.07
2018-07-31T07:08:14.146Z,5.97
2018-07-31T07:10:42.192Z,6.43
2018-07-31T07:13:10.278Z,7.77
2018-07-31T07:15:38.355Z,7.70
2018-07-31T07:18:06.493Z,6.50
2018-07-31T07:20:34.850Z,7.50
2018-07-31T07:23:03.237Z,6.00
2018-07-31T07:25:31.665Z,6.53
2018-07-31T07:28:00.038Z,5.17
2018-07-31T07:30:28.396Z,5.47
2018-07-31T07:32:56.772Z,5.17
2018-07-31T07:35:25.133Z,8.30
2018-07-31T07:37:53.534Z,5.30
2018-07-31T07:40:21.883Z,6.10
2018-07-31T07:42:50.262Z,6.20
2018-07-31T07:45:18.588Z,6.30
2018-07-31T07:47:46.943Z,6.67
2018-07-31T07:50:15.306Z,8.73
2018-07-31T07:52:43.670Z,5.07
2018-07-31T07:55:12.070Z,5.80
2018-07-31T07:57:40.464Z,9.43
2018-07-31T08:00:09.779Z,5.73
2018-07-31T08:02:38.440Z,7.93
2018-07-31T08:05:07.320Z,6.00
2018-07-31T08:07:35.766Z,5.40
2018-07-31T08:10:04.502Z,5.00
2018-07-31T08:12:32.881Z,6.20
2018-07-31T08:15:01.314Z,5.87
2018-07-31T08:17:29.744Z,6.20
2018-07-31T08:19:58.104Z,6.97
2018-07-31T08:22:26.513Z,8.33
2018-07-31T08:24:54.986Z,5.00
2018-07-31T08:27:23.365Z,5.50
2018-07-31T08:29:51.837Z,6.23
2018-07-31T08:32:20.211Z,5.90
2018-07-31T08:34:48.751Z,8.20
2018-07-31T08:37:17.432Z,5.67
2018-07-31T08:39:45.817Z,5.40
2018-07-31T08:42:14.228Z,8.57
2018-07-31T08:44:42.600Z,5.90
2018-07-31T08:47:11.014Z,8.10
2018-07-31T08:49:39.455Z,6.70
2018-07-31T08:52:07.854Z,7.27
2018-07-31T08:54:36.321Z,4.50
2018-07-31T08:57:04.709Z,4.50
2018-07-31T08:59:33.010Z,3.97
2018-07-31T09:02:01.377Z,4.60
2018-07-31T09:04:29.836Z,5.47
2018-07-31T09:06:58.306Z,4.57
2018-07-31T09:09:26.656Z,4.47
2018-07-31T09:11:55.034Z,6.10
2018-07-31T09:14:23.475Z,6.40
2018-07-31T09:16:51.877Z,5.60
2018-07-31T09:19:20.298Z,8.77
2018-07-31T09:21:48.685Z,3.40
2018-07-31T09:24:17.056Z,3.70
2018-07-31T09:26:45.448Z,7.60
2018-07-31T09:29:13.811Z,4.17
2018-07-31T09:31:42.188Z,4.40
2018-07-31T09:34:10.689Z,4.10
2018-07-31T09:36:39.031Z,3.67
2018-07-31T09:39:09.097Z,6.23
2018-07-31T09:41:37.491Z,4.53
2018-07-31T09:44:06.160Z,9.40
2018-07-31T09:46:34.596Z,3.80
2018-07-31T09:49:02.962Z,4.93
2018-07-31T09:51:31.294Z,5.03
2018-07-31T09:53:59.828Z,4.27
2018-07-31T09:56:28.233Z,4.40
2018-07-31T09:58:56.744Z,4.40
2018-07-31T10:01:25.389Z,6.40
2018-07-31T10:03:53.753Z,4.20
2018-07-31T10:06:22.149Z,3.97
2018-07-31T10:08:50.480Z,4.90
2018-07-31T10:11:18.825Z,3.67
2018-07-31T10:13:47.464Z,5.33
2018-07-31T10:16:15.821Z,4.93
2018-07-31T10:18:44.160Z,3.23
2018-07-31T10:21:12.521Z,5.63
2018-07-31T10:23:41.111Z,3.20
2018-07-31T10:26:09.504Z,3.10
2018-07-31T10:28:37.874Z,3.97
2018-07-31T10:31:06.447Z,5.67
2018-07-31T10:33:34.873Z,3.00
2018-07-31T10:36:03.273Z,4.17
2018-07-31T10:38:31.592Z,4.37
2018-07-31T10:40:59.946Z,3.00
2018-07-31T10:43:28.278Z,5.17
2018-07-31T10:45:56.715Z,3.73
2018-07-31T10:48:25.090Z,3.40
2018-07-31T10:50:53.478Z,3.23
2018-07-31T10:53:21.856Z,3.10
2018-07-31T10:55:50.184Z,3.40
2018-07-31T10:58:18.615Z,3.03
2018-07-31T11:00:46.962Z,3.03
2018-07-31T11:03:15.434Z,4.70
2018-07-31T11:05:43.732Z,6.10
2018-07-31T11:08:12.097Z,4.60
2018-07-31T11:10:40.514Z,4.60
2018-07-31T11:13:08.927Z,3.60
2018-07-31T11:15:37.261Z,4.07
2018-07-31T11:18:05.711Z,3.40
2018-07-31T11:20:34.071Z,3.57
2018-07-31T11:23:02.427Z,3.33
2018-07-31T11:25:30.799Z,5.70
2018-07-31T11:27:59.160Z,4.77
2018-07-31T11:30:27.556Z,4.73
2018-07-31T11:32:55.984Z,3.00
2018-07-31T11:35:24.345Z,5.73
2018-07-31T11:37:52.696Z,3.90
2018-07-31T11:40:21.062Z,4.53
2018-07-31T11:42:49.462Z,4.27
2018-07-31T11:45:17.794Z,4.83
2018-07-31T11:47:46.227Z,3.40
2018-07-31T11:50:14.647Z,4.07
2018-07-31T11:52:42.958Z,5.70
2018-07-31T11:55:11.373Z,3.10
2018-07-31T11:57:39.798Z,4.40
2018-07-31T12:00:10.565Z,3.70
2018-07-31T12:02:38.960Z,3.63
2018-07-31T12:05:07.938Z,4.87
2018-07-31T12:07:36.354Z,3.93
2018-07-31T12:10:05.045Z,3.90
2018-07-31T12:12:33.405Z,4.23
2018-07-31T12:15:01.854Z,4.87
2018-07-31T12:17:30.232Z,4.03
2018-07-31T12:19:58.567Z,4.23
2018-07-31T12:22:26.979Z,6.97
2018-07-31T12:24:55.320Z,5.73
2018-07-31T12:27:24.583Z,7.87
2018-07-31T12:29:52.910Z,4.80
2018-07-31T12:32:21.330Z,4.67
2018-07-31T12:34:49.675Z,4.17
2018-07-31T12:37:18.045Z,4.80
2018-07-31T12:39:46.403Z,3.73
2018-07-31T12:42:14.792Z,3.83
2018-07-31T12:44:43.152Z,8.73
2018-07-31T12:47:11.570Z,5.47
2018-07-31T12:49:39.942Z,5.80
2018-07-31T12:52:08.321Z,4.50
2018-07-31T12:54:36.681Z,5.20
2018-07-31T12:57:05.032Z,4.00
2018-07-31T12:59:33.540Z,5.57
2018-07-31T13:02:01.914Z,7.33
2018-07-31T13:04:30.280Z,6.23
2018-07-31T13:06:58.673Z,4.00
2018-07-31T13:09:27.079Z,4.30
2018-07-31T13:11:55.477Z,4.83
2018-07-31T13:14:23.876Z,6.87
2018-07-31T13:16:52.256Z,6.07
2018-07-31T13:19:20.627Z,6.30
2018-07-31T13:21:48.993Z,4.20
2018-07-31T13:24:17.393Z,5.77
2018-07-31T13:26:45.759Z,8.83
2018-07-31T13:29:14.117Z,5.57
2018-07-31T13:31:42.464Z,4.13
2018-07-31T13:34:10.845Z,3.80
2018-07-31T13:36:39.217Z,3.43
2018-07-31T13:39:08.794Z,4.20
2018-07-31T13:41:37.209Z,4.20
2018-07-31T13:44:06.020Z,3.83
2018-07-31T13:46:34.345Z,4.87
2018-07-31T13:49:02.753Z,5.60
2018-07-31T13:51:31.186Z,4.37
2018-07-31T13:53:59.637Z,4.30
2018-07-31T13:56:28.135Z,5.00
2018-07-31T13:58:56.569Z,3.47
2018-07-31T14:01:24.893Z,3.93
2018-07-31T14:03:53.285Z,6.73
2018-07-31T14:06:21.651Z,3.70
2018-07-31T14:08:50.042Z,3.60
2018-07-31T14:11:18.434Z,4.30
2018-07-31T14:13:46.876Z,4.47
2018-07-31T14:16:15.238Z,7.03
2018-07-31T14:18:43.945Z,5.23
2018-07-31T14:21:12.337Z,3.67
2018-07-31T14:23:40.720Z,3.93
2018-07-31T14:26:09.116Z,7.17
2018-07-31T14:28:37.598Z,5.67
2018-07-31T14:31:05.947Z,4.83
2018-07-31T14:33:34.377Z,6.73
2018-07-31T14:36:02.808Z,3.47
2018-07-31T14:38:31.172Z,4.27
2018-07-31T14:40:59.545Z,4.77
2018-07-31T14:43:27.958Z,5.60
2018-07-31T14:45:56.321Z,3.50
2018-07-31T14:48:24.766Z,4.17
2018-07-31T14:50:53.279Z,3.50
2018-07-31T14:53:21.678Z,3.20
2018-07-31T14:55:50.061Z,4.60
2018-07-31T14:58:18.419Z,4.63
2018-07-31T15:00:46.783Z,4.87
2018-07-31T15:03:15.194Z,3.67
2018-07-31T15:05:43.555Z,3.40
2018-07-31T15:08:11.900Z,3.10
2018-07-31T15:10:40.255Z,4.03
2018-07-31T15:13:08.618Z,6.67
2018-07-31T15:15:37.018Z,4.22
2018-07-31T15:18:05.390Z,3.10
2018-07-31T15:20:33.830Z,2.67
2018-07-31T15:23:02.300Z,3.50
2018-07-31T15:25:30.822Z,3.90
2018-07-31T15:27:59.235Z,4.17
2018-07-31T15:30:27.621Z,2.77
2018-07-31T15:32:56.022Z,2.70
2018-07-31T15:35:24.429Z,3.43
2018-07-31T15:37:52.761Z,3.00
2018-07-31T15:40:21.240Z,3.97
2018-07-31T15:42:49.646Z,2.90
2018-07-31T15:45:18.089Z,5.67
2018-07-31T15:47:46.175Z,3.40
2018-07-31T15:50:14.669Z,2.50
2018-07-31T15:52:43.091Z,3.20
2018-07-31T15:55:11.459Z,3.00
2018-07-31T15:57:39.825Z,6.00
2018-07-31T16:00:10.014Z,4.30
2018-07-31T16:02:38.476Z,3.33
2018-07-31T16:05:07.225Z,2.87
2018-07-31T16:07:35.601Z,3.07
2018-07-31T16:10:04.550Z,3.17
2018-07-31T16:12:32.949Z,4.97
2018-07-31T16:15:01.400Z,4.97
2018-07-31T16:17:29.533Z,2.77
2018-07-31T16:19:57.880Z,3.10
2018-07-31T16:22:26.942Z,5.77
2018-07-31T16:24:55.549Z,2.87
2018-07-31T16:27:23.929Z,3.80
2018-07-31T16:29:52.367Z,2.80
2018-07-31T16:32:20.839Z,3.73
2018-07-31T16:34:49.290Z,3.53
2018-07-31T16:37:17.630Z,4.07
2018-07-31T16:39:46.077Z,3.23
2018-07-31T16:42:14.432Z,3.03
2018-07-31T16:44:42.796Z,2.90
2018-07-31T16:47:11.189Z,3.53
2018-07-31T16:49:39.594Z,5.80
2018-07-31T16:52:09.186Z,2.70
2018-07-31T16:54:37.720Z,3.67
2018-07-31T16:57:06.053Z,3.27
2018-07-31T16:59:34.435Z,3.10
2018-07-31T17:02:02.770Z,2.97
2018-07-31T17:04:31.162Z,3.00
2018-07-31T17:06:59.610Z,3.10
2018-07-31T17:09:27.813Z,3.73
2018-07-31T17:11:56.206Z,4.50
2018-07-31T17:14:24.579Z,3.10
2018-07-31T17:16:52.953Z,4.23
2018-07-31T17:19:21.384Z,3.30
2018-07-31T17:21:49.789Z,3.50
2018-07-31T17:24:18.179Z,3.27
2018-07-31T17:26:46.577Z,7.13
2018-07-31T17:29:15.156Z,6.00
2018-07-31T17:31:43.577Z,3.87
2018-07-31T17:34:11.962Z,3.67
2018-07-31T17:36:40.334Z,5.53
2018-07-31T17:39:09.868Z,3.60
2018-07-31T17:41:38.453Z,3.23
2018-07-31T17:44:07.055Z,4.40
2018-07-31T17:46:35.504Z,3.90
2018-07-31T17:49:03.916Z,3.03
2018-07-31T17:51:32.296Z,5.50
2018-07-31T17:54:00.730Z,4.30
2018-07-31T17:56:29.123Z,3.30
2018-07-31T17:58:57.493Z,3.20
2018-07-31T18:01:25.857Z,4.67
2018-07-31T18:03:54.288Z,3.43
2018-07-31T18:06:22.683Z,3.03
2018-07-31T18:08:51.015Z,3.00
2018-07-31T18:11:19.389Z,2.63
2018-07-31T18:13:47.740Z,4.03
2018-07-31T18:16:16.085Z,2.73
2018-07-31T18:18:44.574Z,2.70
2018-07-31T18:21:13.033Z,3.67
2018-07-31T18:23:41.473Z,2.50
2018-07-31T18:26:09.869Z,3.20
2018-07-31T18:28:38.240Z,2.83
2018-07-31T18:31:06.620Z,4.00
2018-07-31T18:33:34.977Z,3.30
2018-07-31T18:36:03.610Z,3.13
2018-07-31T18:38:31.938Z,3.57
2018-07-31T18:41:00.362Z,2.10
2018-07-31T18:43:28.737Z,4.60
2018-07-31T18:45:57.129Z,3.10
2018-07-31T18:48:25.566Z,4.00
2018-07-31T18:50:53.969Z,2.83
2018-07-31T18:53:22.412Z,6.40
2018-07-31T18:55:50.707Z,6.00
2018-07-31T18:58:19.095Z,5.37
2018-07-31T19:00:47.578Z,4.83
2018-07-31T19:03:15.960Z,6.63
2018-07-31T19:05:44.372Z,4.83
2018-07-31T19:08:12.784Z,4.80
2018-07-31T19:10:41.187Z,11.50
2018-07-31T19:13:09.609Z,9.17
2018-07-31T19:15:37.937Z,7.10
2018-07-31T19:18:06.358Z,4.93
2018-07-31T19:20:34.910Z,6.40
2018-07-31T19:23:03.305Z,7.67
2018-07-31T19:25:31.472Z,6.00
2018-07-31T19:27:59.903Z,6.07
2018-07-31T19:30:28.244Z,3.50
2018-07-31T19:32:56.608Z,3.60
2018-07-31T19:35:25.011Z,6.57
2018-07-31T19:37:53.368Z,3.13
2018-07-31T19:40:21.745Z,6.10
2018-07-31T19:42:50.117Z,5.13
2018-07-31T19:45:18.184Z,9.43
2018-07-31T19:47:46.578Z,5.47
2018-07-31T19:50:14.976Z,5.40
2018-07-31T19:52:43.490Z,3.40
2018-07-31T19:55:13.487Z,3.10
2018-07-31T19:57:46.364Z,10.40
2018-07-31T20:00:14.934Z,3.50
2018-07-31T20:02:43.316Z,4.13
2018-07-31T20:05:11.766Z,7.20
2018-07-31T20:07:40.218Z,3.57
2018-07-31T20:10:08.600Z,5.90
2018-07-31T20:12:37.009Z,4.10
2018-07-31T20:15:05.997Z,4.83
2018-07-31T20:17:34.494Z,2.70
2018-07-31T20:20:02.855Z,4.40
2018-07-31T20:22:31.242Z,4.17
2018-07-31T20:24:59.596Z,7.00
2018-07-31T20:27:28.022Z,2.97
2018-07-31T20:29:56.361Z,3.30
2018-07-31T20:32:24.687Z,2.87
2018-07-31T20:34:53.056Z,7.30
2018-07-31T20:37:21.405Z,6.83
2018-07-31T20:39:49.797Z,4.53
2018-07-31T20:42:18.135Z,3.53
2018-07-31T20:44:46.535Z,3.03
2018-07-31T20:47:14.857Z,3.40
2018-07-31T20:49:43.218Z,2.67
2018-07-31T20:52:11.627Z,3.03
2018-07-31T20:54:39.993Z,3.20
2018-07-31T20:57:08.367Z,5.10
2018-07-31T20:59:36.436Z,2.70
2018-07-31T21:02:04.771Z,3.50
2018-07-31T21:04:33.167Z,2.77
2018-07-31T21:07:01.688Z,3.60
2018-07-31T21:09:30.066Z,5.53
2018-07-31T21:11:58.420Z,3.93
2018-07-31T21:14:26.777Z,2.90
2018-07-31T21:16:55.152Z,2.83
2018-07-31T21:19:23.519Z,6.17
2018-07-31T21:21:51.896Z,4.03
2018-07-31T21:24:20.237Z,3.23
2018-07-31T21:26:48.582Z,5.40
2018-07-31T21:29:16.945Z,7.53
2018-07-31T21:31:45.300Z,2.90
2018-07-31T21:34:13.664Z,6.00
2018-07-31T21:36:42.005Z,4.70
2018-07-31T21:39:11.967Z,3.00
2018-07-31T21:41:40.688Z,3.73
2018-07-31T21:44:09.046Z,3.00
2018-07-31T21:46:37.433Z,7.83
2018-07-31T21:49:05.936Z,4.23
2018-07-31T21:51:34.280Z,5.20
2018-07-31T21:54:02.632Z,3.40
2018-07-31T21:56:31.002Z,3.17
2018-07-31T21:58:59.363Z,2.80
2018-07-31T22:01:27.689Z,3.63
2018-07-31T22:03:56.075Z,3.90
2018-07-31T22:06:24.487Z,4.10
2018-07-31T22:08:52.867Z,3.20
2018-07-31T22:11:21.249Z,3.77
2018-07-31T22:13:49.361Z,6.97
2018-07-31T22:16:17.406Z,2.40
2018-07-31T22:18:45.810Z,3.23
2018-07-31T22:21:14.141Z,5.27
2018-07-31T22:23:42.566Z,4.73
2018-07-31T22:26:10.926Z,4.90
2018-07-31T22:28:39.318Z,2.47
2018-07-31T22:31:07.658Z,8.40
2018-07-31T22:33:35.733Z,4.37
2018-07-31T22:36:04.113Z,3.07
2018-07-31T22:38:32.429Z,4.60
2018-07-31T22:41:00.777Z,6.47
2018-07-31T22:43:29.218Z,2.83
2018-07-31T22:45:57.820Z,3.83
2018-07-31T22:48:26.149Z,5.07
2018-07-31T22:50:54.619Z,7.60
2018-07-31T22:53:23.011Z,3.90
2018-07-31T22:55:51.314Z,2.30
2018-07-31T22:58:19.621Z,3.00
2018-07-31T23:00:47.969Z,2.13
2018-07-31T23:03:16.278Z,6.50
2018-07-31T23:05:44.616Z,2.30
2018-07-31T23:08:12.993Z,3.40
2018-07-31T23:10:41.516Z,6.30
2018-07-31T23:13:09.858Z,2.77
2018-07-31T23:15:38.190Z,5.17
2018-07-31T23:18:06.522Z,7.23
2018-07-31T23:20:34.821Z,4.00
2018-07-31T23:23:03.153Z,6.83
2018-07-31T23:25:31.488Z,3.50
2018-07-31T23:27:59.788Z,2.30
2018-07-31T23:30:28.680Z,2.50
2018-07-31T23:32:56.992Z,4.03
2018-07-31T23:35:25.315Z,3.27
2018-07-31T23:37:53.708Z,3.43
2018-07-31T23:40:22.017Z,3.07
2018-07-31T23:42:50.356Z,7.80
2018-07-31T23:45:18.663Z,3.60
2018-07-31T23:47:46.984Z,6.70
2018-07-31T23:50:15.326Z,2.97
2018-07-31T23:52:43.638Z,6.60
2018-07-31T23:55:12.003Z,5.93
2018-07-31T23:57:40.334Z,3.30
